Smith Valley, Nevada Weather observations

Data are for 10 minute period ending at time listed.
 Day   Time   Solar   Ave.   Ave.  Ave.  Vector  Max.   Baro.   Total    
  of    of     Rad.   Air    Rel.  Wind   Wind   Wind  Press.  Precip.   
Year   Day            Temp.  Hum.  Speed  Dir.   Gust                    
2014   (PST)  Kw/m2    F      %     mph   deg.    mph    mb.     in.     
-------------------------------------------------------------------------
 207   20:50   0.00   80.1    18    9.3   249    13.7   853.5    0.00 
 207   21:00   0.00   80.2    18   10.3   244    14.0   853.5    0.00 
 207   21:10   0.00   80.1    18   10.9   244    16.5   853.5    0.00 
 207   21:20   0.00   80.5    18   10.7   249    15.4   853.5    0.00 
 207   21:30   0.00   80.1    18    8.0   248    11.8   853.7    0.00 
 207   21:40   0.00   79.6    18    8.2   241    11.8   853.7    0.00 
 207   21:50   0.00   79.5    18    9.6   241    13.3   853.7    0.00 
 207   22:00   0.00   79.1    19    9.9   243    15.3   853.7    0.00 
 207   22:10   0.00   79.7    18   11.4   250    16.7   853.7    0.00 
 207   22:20   0.00   79.7    18    8.8   238    15.4   853.7    0.00 
 207   22:30   0.00   77.0    20    4.8   154     8.2   853.8    0.00 
 207   22:40   0.00   73.2    23    4.8   149     7.5   853.8    0.00 
 207   22:50   0.00   71.0    25    3.8   157     7.0   853.8    0.00 
 207   23:00   0.00   72.7    22    2.8   128     7.8   853.8    0.00 
 207   23:10   0.00   73.9    22    3.3    58     6.9   853.9    0.00 
 207   23:20   0.00   72.7    24    2.7    28     6.2   853.9    0.00 
 207   23:30   0.00   71.4    25    2.2    80     3.7   853.9    0.00 
 207   23:40   0.00   71.1    25    2.8   146     4.5   853.9    0.00 
 207   23:50   0.00   68.2    29    2.9    46     5.4   853.9    0.00 
 208    0:00   0.00   70.9    27    3.6    52     5.9   854.0    0.00 
 208    0:10   0.00   70.4    29    3.4    49     6.1   854.1    0.00 
 208    0:20   0.00   70.2    29    3.3    50     4.7   854.2    0.00 
 208    0:30   0.00   70.4    26    3.6   350     6.3   854.1    0.00 
 208    0:40   0.00   70.7    24    3.2   313     6.0   854.2    0.00 
 208    0:50   0.00   70.3    25    2.1   274     4.7   854.2    0.00 
 208    1:00   0.00   69.7    26    1.3   324     3.0   854.2    0.00 
 208    1:10   0.00   68.3    29    0.7   333     2.2   854.2    0.00 
 208    1:20   0.00   68.3    27    0.6     1     2.3   854.1    0.00 
 208    1:30   0.00   69.9    26    1.0   324     2.3   854.0    0.00 
 208    1:40   0.00   66.6    32    3.1   173     5.1   853.9    0.00 
 208    1:50   0.00   64.7    37    2.0   128     3.9   853.9    0.00 
 208    2:00   0.00   64.4    36    2.4    74     4.2   853.9    0.00 
 208    2:10   0.00   66.8    33    2.8    62     4.5   853.8    0.00 
 208    2:20   0.00   67.2    33    2.7    68     3.4   853.8    0.00 
 208    2:30   0.00   66.8    31    3.9    87     5.1   853.8    0.00 
 208    2:40   0.00   67.6    30    5.3    92     7.4   853.7    0.00 
 208    2:50   0.00   69.2    27    5.1    77     7.7   853.8    0.00 
 208    3:00   0.00   68.6    29    1.8   321     3.3   853.9    0.00 
 208    3:10   0.00   64.9    34    2.8   254     3.5   853.9    0.00 
 208    3:20   0.00   64.1    36    1.9    72     3.1   853.9    0.00 
 208    3:30   0.00   63.3    38    1.9   143     3.4   853.9    0.00 
 208    3:40   0.00   61.7    43    3.3   157     4.5   853.7    0.00 
 208    3:50   0.00   61.4    44    3.9   176     5.1   853.7    0.00 
 208    4:00   0.00   61.4    42    2.7   172     5.0   853.6    0.00 
 208    4:10   0.00   59.7    49    2.6   138     3.8   853.6    0.00 
 208    4:20   0.00   60.3    45    2.8    95     4.9   853.7    0.00 
 208    4:30   0.00   57.8    51    3.6   151     5.3   853.7    0.00 
 208    4:40   0.00   57.9    48    2.4   162     5.7   853.8    0.00 
 208    4:50   0.00   59.4    46    2.3   141     3.7   853.9    0.00 
 208    5:00   0.00   59.6    47    2.2   123     3.5   854.1    0.00 
 208    5:10   0.01   60.9    44    3.2   120     5.3   854.1    0.00 
 208    5:20   0.01   61.8    39    1.9    79     3.3   854.1    0.00 
 208    5:30   0.02   63.6    32    2.1    54     3.7   854.2    0.00 
 208    5:40   0.04   66.7    28    1.5   103     3.1   854.2    0.00 
 208    5:50   0.06   65.4    31    1.8   117     3.4   854.2    0.00 
 208    6:00   0.09   64.0    34    0.8   256     3.5   854.4    0.00 
 208    6:10   0.11   65.8    32    1.2   239     3.1   854.5    0.00 
 208    6:20   0.10   67.0    31    1.1   288     2.7   854.6    0.00 
 208    6:30   0.20   68.0    31    2.1   355     4.5   854.7    0.00 
 208    6:40   0.21   70.3    31    2.9    12     4.7   854.7    0.00 
 208    6:50   0.16   70.3    32    3.6    42     5.3   854.8    0.00 
 208    7:00   0.10   69.7    29    3.7    21     5.8   855.1    0.00 
 208    7:10   0.20   70.1    28    2.7   311     4.6   854.9    0.00 
 208    7:20   0.15   74.5    22    2.7   309     5.3   855.1    0.00 
 208    7:30   0.42   74.5    21    3.9   337     7.5   855.3    0.00 
 208    7:40   0.50   76.1    21    3.5    20     5.1   855.2    0.00 
 208    7:50   0.56   78.1    19    3.1    31     6.0   855.2    0.00 
 208    8:00   0.60   78.9    20    6.8    59     9.9   855.3    0.00 
 208    8:10   0.60   79.3    22    5.9    21     9.6   855.3    0.00 
 208    8:20   0.60   80.6    19    6.6   327     9.9   855.3    0.00 
 208    8:30   0.62   80.0    21    5.7   352     7.8   855.3    0.00 
 208    8:40   0.60   80.6    22    6.5   352     9.2   855.3    0.00 
 208    8:50   0.64   82.4    18    6.8   336     9.1   855.3    0.00 
 208    9:00   0.78   83.9    18    6.5   348     9.8   855.2    0.00 
 208    9:10   0.89   83.6    20    6.9     1    10.3   855.1    0.00 
 208    9:20   0.89   84.2    18    7.5   346    10.2   855.0    0.00 
 208    9:30   0.85   83.8    17    7.2   337     9.6   855.0    0.00 
 208    9:40   0.78   84.6    15    5.8   347     8.9   855.0    0.00 
 208    9:50   0.71   85.5    15    5.2   359     7.7   854.9    0.00 
 208   10:00   0.44   85.1    14    4.7   329     7.3   854.9    0.00 
 208   10:10   0.92   86.1    14    3.9   340     5.5   854.9    0.00 
 208   10:20   0.93   87.0    12    3.0    13     6.2   854.8    0.00 
 208   10:30   0.74   87.8    12    3.3    73     5.8   854.7    0.00 
 208   10:40   0.85   87.9    13    3.4     4     6.1   854.5    0.00 
 208   10:50   1.00   88.3    12    2.9    40     7.1   854.5    0.00 
 208   11:00   0.82   89.1    12    4.0    47    10.1   854.4    0.00 
 208   11:10   0.88   89.0    12    5.9    46    10.3   854.3    0.00 
 208   11:20   0.89   89.8    12    4.3    58     8.2   854.3    0.00 
 208   11:30   1.06   90.2    11    3.5    97     7.7   854.2    0.00 
 208   11:40   0.75   90.1    11    5.2    55     9.2   854.1    0.00 
 208   11:50   1.06   89.9    11    5.4    51    12.2   853.9    0.00 
 208   12:00   1.14   91.5    10    8.5    64    14.8   853.9    0.00 
 208   12:10   0.92   90.8    10    6.3    86    11.0   853.8    0.00 
 208   12:20   1.11   91.7    10    5.6    75    12.1   853.7    0.00 
 208   12:30   0.94   91.5    10    5.9    98    10.6   853.6    0.00 
 208   12:40   0.99   91.3    10    6.6    92    12.9   853.5    0.00 
 208   12:50   1.21   92.9    10    5.1    81     9.0   853.5    0.00 
 208   13:00   0.63   92.5    10    4.2    41     8.8   853.3    0.00 
 208   13:10   0.48   91.3    10    3.7    26     6.8   853.3    0.00 
 208   13:20   1.07   91.9    10    3.1   354     8.0   853.2    0.00 
 208   13:30   1.09   93.5    10    4.6   352     8.7   853.2    0.00 
 208   13:40   0.85   92.3    10    4.9   353    10.0   853.1    0.00 
 208   13:50   0.92   93.4    10    4.9   358     8.4   853.0    0.00 
 208   14:00   0.20   92.2    10    4.1   303     9.3   853.0    0.00 
 208   14:10   0.24   91.0    10    4.1   353    10.5   853.0    0.00 
 208   14:20   0.18   91.1    11    6.0   309     9.4   853.0    0.00 
 208   14:30   0.23   91.5    11    6.7   271    10.4   853.0    0.00 
 208   14:40   0.27   91.1    12   11.1   242    19.3   852.8    0.00 
 208   14:50   0.66   92.0    12   10.5   255    17.6   852.8    0.00 
 208   15:00   0.91   92.3    11   11.7   260    17.2   852.8    0.00 
 208   15:10   0.51   93.6    11   12.1   283    16.6   852.7    0.00 
 208   15:20   0.34   91.9    12   11.8   264    20.0   852.6    0.00 
 208   15:30   0.55   90.8    12   11.6   254    15.9   852.6    0.00 
 208   15:40   0.39   92.0    12    9.9   261    16.8   852.7    0.00 
 208   15:50   0.24   91.7    12   11.2   262    16.7   852.7    0.00 
 208   16:00   0.25   89.9    13    9.9   245    14.8   852.8    0.00 
 208   16:10   0.16   89.7    13    7.6   248    12.6   852.9    0.00 
 208   16:20   0.07   89.0    13    4.9   231     7.7   853.1    0.00 
 208   16:30   0.06   87.0    17   10.4   173    25.7   853.3    0.00 
 208   16:40   0.06   81.4    26   27.1   161    39.2   853.8    0.00 
 208   16:50   0.06   80.2    27   20.5   150    31.3   854.3    0.00 
 208   17:00   0.05   77.8    32   23.1   150    36.0   854.2    0.00 
 208   17:10   0.03   77.1    35   21.1   166    29.8   854.4    0.00 
 208   17:20   0.02   76.3    37   20.6   168    29.7   854.5    0.00 
 208   17:30   0.02   76.5    34   15.4   178    24.3   854.7    0.00 
 208   17:40   0.03   78.1    29   11.5   171    18.3   854.9    0.00 
 208   17:50   0.04   81.1    22    9.5    95    18.3   854.9    0.00 
 208   18:00   0.04   83.2    19    7.1   116    14.0   854.9    0.00 
 208   18:10   0.02   82.2    21    4.2   127     6.6   854.8    0.00 
 208   18:20   0.01   80.2    24    4.3   170     5.7   854.6    0.00 
 208   18:30   0.01   79.6    24    5.3   227     7.8   854.4    0.00 
 208   18:40   0.02   79.4    27    6.4   282     9.1   854.2    0.00 
 208   18:50   0.01   77.8    31    7.5   275     9.6   854.0    0.00 
 208   19:00   0.01   77.5    33    4.1   191     6.9   854.4    0.00 
 208   19:10   0.01   77.6    29    4.6    98     6.7   854.6    0.00 
 208   19:20   0.01   78.6    27    3.2   145     8.4   854.7    0.00 
 208   19:30   0.00   77.2    31    8.3   164    13.4   854.6    0.00 
 208   19:40   0.00   75.9    34    7.1   170    10.4   854.6    0.00 
 208   19:50   0.00   75.9    33    7.2   192     9.8   854.6    0.00 
 208   20:00   0.00   77.8    28    6.1   189    10.0   854.6    0.00 
 208   20:10   0.00   76.4    31    3.7   167     6.8   854.8    0.00 
 208   20:20   0.00   76.1    31    2.0   214     4.1   854.9    0.00 
 208   20:30   0.00   75.9    32    3.4   150     5.7   854.9    0.00 
 208   20:40   0.00   75.0    34    3.5   161     6.6   855.0    0.00 

Return to Smith Valley graphs page.


Western Regional Climate Center,wrcc@dri.edu